Time;durP1;ratioP1;P1;durP2;ratioP2;P2;SDS_P1;SDS_P2;PMS_P1;PMS_P2;Temp;Humidity;BMP_temperature;BMP_pressure;BME280_temperature;BME280_humidity;BME280_pressure;Samples;Min_cycle;Max_cycle;Signal;HPM_P1;HPM_P2
2022/07/19 00:02:15;;;;;;;14.82;3.72;;;28.50;59.00;;;;;;5090067;28;20047;-71
2022/07/19 00:05:20;;;;;;;5.72;3.80;;;28.40;58.30;;;;;;5090856;28;20065;-71
2022/07/19 00:08:24;;;;;;;7.32;3.53;;;28.40;57.90;;;;;;5090548;28;20400;-71
2022/07/19 00:11:28;;;;;;;6.82;3.78;;;28.50;57.80;;;;;;5089929;28;20043;-71
2022/07/19 00:14:32;;;;;;;8.52;3.97;;;28.50;58.30;;;;;;5090623;28;20051;-71
2022/07/19 00:17:40;;;;;;;6.43;3.55;;;28.50;58.00;;;;;;5090413;28;20047;-71
2022/07/19 00:20:45;;;;;;;7.35;3.67;;;28.60;58.20;;;;;;5093510;28;20051;-71
2022/07/19 00:23:49;;;;;;;8.63;3.85;;;28.60;58.80;;;;;;5093946;28;20063;-71
2022/07/19 00:26:52;;;;;;;8.05;3.58;;;28.60;59.10;;;;;;5093881;28;20395;-71
2022/07/19 00:29:59;;;;;;;10.32;4.28;;;28.40;59.00;;;;;;5093919;28;20039;-71
2022/07/19 00:33:08;;;;;;;5.20;4.13;;;28.30;59.40;;;;;;5093987;28;20047;-71
2022/07/19 00:36:11;;;;;;;8.65;4.95;;;28.30;59.90;;;;;;5094041;28;20495;-71
2022/07/19 00:39:16;;;;;;;7.85;4.32;;;28.20;59.70;;;;;;5093805;28;20427;-71
2022/07/19 00:42:20;;;;;;;7.78;5.10;;;28.20;60.60;;;;;;5093767;28;20047;-71
2022/07/19 00:45:24;;;;;;;8.98;5.20;;;28.20;60.50;;;;;;5093670;28;20043;-71
2022/07/19 00:48:28;;;;;;;9.07;4.72;;;28.10;60.60;;;;;;5093893;28;20047;-71
2022/07/19 00:51:35;;;;;;;17.33;5.18;;;28.00;61.40;;;;;;5093663;28;20526;-71
2022/07/19 00:54:40;;;;;;;10.95;5.57;;;28.10;61.60;;;;;;5093491;28;20043;-71
2022/07/19 00:57:48;;;;;;;12.93;5.25;;;28.10;61.90;;;;;;5093447;28;20043;-71
2022/07/19 01:00:52;;;;;;;14.63;5.53;;;27.80;62.40;;;;;;5093674;28;20498;-71
2022/07/19 01:03:57;;;;;;;9.52;5.30;;;27.60;63.30;;;;;;5093712;28;20114;-71
2022/07/19 01:07:00;;;;;;;8.95;5.40;;;27.60;63.20;;;;;;5093365;28;20051;-71
2022/07/19 01:10:14;;;;;;;12.45;5.38;;;27.60;63.20;;;;;;5093592;28;20058;-71
2022/07/19 01:13:19;;;;;;;9.98;5.20;;;27.50;63.50;;;;;;5094094;28;20494;-71
2022/07/19 01:16:22;;;;;;;14.20;5.35;;;27.50;64.20;;;;;;5093111;28;20062;-71
2022/07/19 01:19:27;;;;;;;11.65;5.50;;;27.40;64.10;;;;;;5092785;28;20106;-71
2022/07/19 01:22:31;;;;;;;12.38;5.75;;;27.50;63.50;;;;;;5092992;28;20043;-71
2022/07/19 01:25:37;;;;;;;10.88;5.63;;;27.40;64.40;;;;;;5093040;28;20055;-71
2022/07/19 01:28:41;;;;;;;10.48;5.07;;;27.40;65.00;;;;;;5092912;28;20043;-71
2022/07/19 01:31:45;;;;;;;7.50;5.28;;;27.20;65.10;;;;;;5092402;28;20047;-71
2022/07/19 01:34:49;;;;;;;11.75;5.95;;;27.20;64.80;;;;;;5093214;28;20047;-71
2022/07/19 01:37:53;;;;;;;10.55;5.75;;;27.10;65.20;;;;;;5092516;28;20403;-71
2022/07/19 01:41:00;;;;;;;7.28;5.40;;;27.10;65.40;;;;;;5092609;28;20050;-71
2022/07/19 01:44:04;;;;;;;13.40;5.18;;;27.20;66.20;;;;;;5092500;28;20055;-71
2022/07/19 01:47:08;;;;;;;10.15;5.30;;;27.10;66.00;;;;;;5092776;28;20039;-71
2022/07/19 01:50:13;;;;;;;11.68;5.55;;;27.10;66.60;;;;;;5092492;28;20047;-71
2022/07/19 01:53:17;;;;;;;9.23;5.60;;;26.90;66.90;;;;;;5091712;28;20055;-71
2022/07/19 01:56:21;;;;;;;14.23;5.60;;;26.90;67.20;;;;;;5092404;28;20047;-71
2022/07/19 01:59:25;;;;;;;14.52;5.72;;;26.70;66.80;;;;;;5092473;28;20047;-71
2022/07/19 02:02:29;;;;;;;17.20;5.50;;;26.70;67.50;;;;;;5092431;28;20043;-71
2022/07/19 02:05:33;;;;;;;13.77;5.47;;;26.80;67.70;;;;;;5092470;28;20047;-71
2022/07/19 02:08:37;;;;;;;10.88;4.90;;;26.80;68.00;;;;;;5091462;28;20035;-71
2022/07/19 02:11:41;;;;;;;16.17;5.45;;;26.80;66.20;;;;;;5092049;28;20043;-71
2022/07/19 02:14:46;;;;;;;6.93;4.43;;;26.70;67.00;;;;;;5092134;28;20055;-71
2022/07/19 02:17:50;;;;;;;10.27;5.50;;;26.60;67.70;;;;;;5092327;28;20043;-71
2022/07/19 02:20:54;;;;;;;22.23;5.53;;;26.40;67.40;;;;;;5092334;28;20035;-71
2022/07/19 02:23:58;;;;;;;13.57;5.32;;;26.40;66.90;;;;;;5091884;28;20047;-71
2022/07/19 02:27:02;;;;;;;11.73;5.10;;;26.40;67.40;;;;;;5092136;28;20059;-71
2022/07/19 02:30:08;;;;;;;14.65;4.95;;;26.30;68.20;;;;;;5091590;28;20055;-71
2022/07/19 02:33:12;;;;;;;13.85;4.90;;;26.20;68.20;;;;;;5091819;28;20141;-71
2022/07/19 02:36:17;;;;;;;12.13;5.03;;;26.00;69.00;;;;;;5090660;28;20503;-71
2022/07/19 02:39:21;;;;;;;8.68;5.03;;;25.90;68.00;;;;;;5091564;28;20039;-71
2022/07/19 02:42:25;;;;;;;14.10;5.10;;;25.80;68.40;;;;;;5091157;28;20043;-71
2022/07/19 02:45:29;;;;;;;17.10;6.22;;;25.80;68.90;;;;;;5091508;28;20051;-71
2022/07/19 02:48:32;;;;;;;11.75;5.78;;;25.80;69.70;;;;;;5090812;28;20051;-71
2022/07/19 02:51:37;;;;;;;15.30;5.30;;;25.80;69.80;;;;;;5091360;28;20479;-71
2022/07/19 02:54:40;;;;;;;12.55;5.38;;;25.80;69.80;;;;;;5091195;28;20047;-71
2022/07/19 02:57:44;;;;;;;9.88;5.30;;;25.60;69.50;;;;;;5091521;28;20043;-71
2022/07/19 03:00:48;;;;;;;13.82;5.45;;;25.70;70.00;;;;;;5091539;28;20039;-71
2022/07/19 03:03:52;;;;;;;16.20;5.05;;;25.60;70.20;;;;;;5090966;28;20055;-71
2022/07/19 03:06:56;;;;;;;11.05;5.65;;;25.60;70.60;;;;;;5091364;28;20534;-71
2022/07/19 03:10:00;;;;;;;12.73;5.45;;;25.60;70.40;;;;;;5091283;28;20047;-71
2022/07/19 03:13:04;;;;;;;14.80;5.00;;;25.70;70.30;;;;;;5090035;28;20043;-71
2022/07/19 03:16:09;;;;;;;12.88;5.28;;;25.70;69.70;;;;;;5090799;28;20539;-71
2022/07/19 03:19:13;;;;;;;11.23;5.82;;;25.70;70.40;;;;;;5090962;28;20043;-71
2022/07/19 03:22:17;;;;;;;11.15;6.78;;;25.80;70.00;;;;;;5091261;28;20047;-71
2022/07/19 03:25:21;;;;;;;9.40;5.55;;;25.80;70.30;;;;;;5091059;28;20047;-71
2022/07/19 03:28:30;;;;;;;16.70;5.68;;;25.70;70.50;;;;;;5090858;28;20047;-71
2022/07/19 03:31:34;;;;;;;8.23;5.30;;;25.60;70.50;;;;;;5090991;28;20396;-71
2022/07/19 03:34:37;;;;;;;8.35;5.32;;;25.50;70.20;;;;;;5090835;28;20384;-71
2022/07/19 03:37:42;;;;;;;10.52;5.30;;;25.40;69.70;;;;;;5091146;28;20047;-71
2022/07/19 03:40:47;;;;;;;35.92;6.70;;;25.50;70.20;;;;;;5090806;28;20145;-71
2022/07/19 03:43:51;;;;;;;15.27;6.03;;;25.50;70.30;;;;;;5090561;28;20518;-71
2022/07/19 03:46:55;;;;;;;24.48;6.18;;;25.60;70.30;;;;;;5090541;28;20214;-71
2022/07/19 03:49:59;;;;;;;17.08;6.03;;;25.60;69.70;;;;;;5090624;28;20047;-71
2022/07/19 03:53:03;;;;;;;15.52;6.15;;;25.50;70.40;;;;;;5090741;28;20475;-71
2022/07/19 03:56:07;;;;;;;15.00;5.65;;;25.50;70.30;;;;;;5094413;28;20047;-71
2022/07/19 03:59:11;;;;;;;11.85;5.40;;;25.40;70.10;;;;;;5094688;28;20042;-71
2022/07/19 04:02:15;;;;;;;9.60;5.22;;;25.40;70.10;;;;;;5094416;28;20407;-71
2022/07/19 04:05:19;;;;;;;12.25;5.32;;;25.30;69.00;;;;;;5094554;28;20051;-71
2022/07/19 04:08:23;;;;;;;18.38;4.80;;;25.30;70.20;;;;;;5093566;28;20039;-71
2022/07/19 04:11:27;;;;;;;25.15;5.93;;;25.30;69.50;;;;;;5094601;28;20063;-71
2022/07/19 04:14:31;;;;;;;19.15;5.68;;;25.30;68.90;;;;;;5094198;28;20043;-71
2022/07/19 04:17:35;;;;;;;36.58;6.88;;;25.30;69.50;;;;;;5094363;28;20055;-71
2022/07/19 04:20:39;;;;;;;18.15;5.43;;;25.40;69.60;;;;;;5093964;28;20269;-71
2022/07/19 04:23:43;;;;;;;17.30;5.20;;;25.50;69.30;;;;;;5094027;28;20067;-71
2022/07/19 04:26:46;;;;;;;25.25;6.22;;;25.70;69.00;;;;;;5094310;28;20052;-71
2022/07/19 04:29:50;;;;;;;31.67;5.40;;;25.60;69.60;;;;;;5094022;28;20043;-71
2022/07/19 04:32:54;;;;;;;22.80;5.45;;;25.50;69.00;;;;;;5093813;28;20039;-71
2022/07/19 04:35:58;;;;;;;17.05;4.80;;;25.50;68.70;;;;;;5094432;28;20043;-71
2022/07/19 04:39:02;;;;;;;18.73;5.68;;;25.50;68.60;;;;;;5093964;28;20522;-71
2022/07/19 04:42:06;;;;;;;21.23;5.63;;;25.60;68.90;;;;;;5093545;28;20110;-71
2022/07/19 04:45:10;;;;;;;25.20;5.47;;;25.90;68.40;;;;;;5093772;28;20122;-71
2022/07/19 04:48:14;;;;;;;25.23;5.38;;;26.50;67.70;;;;;;5093673;28;20399;-71
2022/07/19 04:51:18;;;;;;;60.47;7.25;;;27.30;66.00;;;;;;5093437;28;20213;-71
2022/07/19 04:54:22;;;;;;;22.13;5.68;;;27.90;65.40;;;;;;5093466;28;20043;-71
2022/07/19 04:57:26;;;;;;;25.73;6.80;;;28.60;64.10;;;;;;5093494;28;20043;-71
2022/07/19 05:00:30;;;;;;;25.05;6.13;;;28.80;63.60;;;;;;5093556;28;20392;-71
2022/07/19 05:03:34;;;;;;;22.42;7.85;;;29.10;63.90;;;;;;5093337;28;20051;-71
2022/07/19 05:06:38;;;;;;;34.90;6.82;;;29.40;63.50;;;;;;5093674;28;20475;-69
2022/07/19 05:09:42;;;;;;;40.13;8.27;;;29.70;63.00;;;;;;5093515;28;20047;-71
2022/07/19 05:12:46;;;;;;;40.90;7.93;;;29.70;62.70;;;;;;5093497;28;20383;-71
2022/07/19 05:15:50;;;;;;;42.45;8.10;;;29.70;63.10;;;;;;5093311;28;20381;-71
2022/07/19 05:18:54;;;;;;;105.65;12.65;;;29.90;62.60;;;;;;5092887;28;20535;-71
2022/07/19 05:21:58;;;;;;;62.88;10.20;;;30.00;61.90;;;;;;5093650;28;20043;-71
2022/07/19 05:25:02;;;;;;;54.88;8.35;;;30.10;62.30;;;;;;5093335;28;20051;-74
2022/07/19 05:28:06;;;;;;;42.13;8.85;;;30.20;62.40;;;;;;5092999;28;20521;-74
2022/07/19 05:31:10;;;;;;;28.42;5.55;;;30.20;58.30;;;;;;5092870;28;20054;-75
2022/07/19 05:34:14;;;;;;;22.95;5.70;;;30.30;57.80;;;;;;5092892;28;20059;-72
2022/07/19 05:37:18;;;;;;;23.75;5.85;;;30.50;54.80;;;;;;5092895;28;20058;-72
2022/07/19 05:40:22;;;;;;;13.40;4.63;;;30.70;54.70;;;;;;5091992;28;20039;-73
2022/07/19 05:43:26;;;;;;;22.67;4.55;;;30.80;53.40;;;;;;5092731;28;20412;-72
2022/07/19 05:46:29;;;;;;;19.85;4.60;;;30.90;52.70;;;;;;5092862;28;20039;-72
2022/07/19 05:49:34;;;;;;;15.80;4.90;;;30.80;51.10;;;;;;5092404;28;20043;-72
2022/07/19 05:52:37;;;;;;;24.63;5.18;;;30.60;51.90;;;;;;5092604;28;20408;-72
2022/07/19 05:55:41;;;;;;;15.52;4.45;;;30.40;52.50;;;;;;5091835;28;20438;-72
2022/07/19 05:58:46;;;;;;;16.13;5.32;;;30.20;52.00;;;;;;5092418;28;20055;-72
2022/07/19 06:01:50;;;;;;;23.38;4.60;;;30.40;51.60;;;;;;5092534;28;20047;-72
2022/07/19 06:04:54;;;;;;;26.50;5.07;;;30.70;51.50;;;;;;5092263;28;20063;-72
2022/07/19 06:07:58;;;;;;;21.02;5.25;;;30.90;50.80;;;;;;5091530;28;20062;-72
2022/07/19 06:11:02;;;;;;;16.20;4.63;;;30.80;50.00;;;;;;5091975;28;20051;-73
2022/07/19 06:14:08;;;;;;;19.90;4.50;;;30.70;49.80;;;;;;5090750;28;20046;-70
2022/07/19 06:17:12;;;;;;;23.40;4.85;;;30.70;51.10;;;;;;5090252;28;20035;-68
2022/07/19 06:20:16;;;;;;;16.92;4.80;;;30.90;50.30;;;;;;5091127;28;20399;-70
2022/07/19 06:23:20;;;;;;;20.02;4.60;;;31.30;50.00;;;;;;5092333;28;20051;-69
2022/07/19 06:26:26;;;;;;;17.55;4.95;;;31.70;49.60;;;;;;5091975;28;20471;-72
2022/07/19 06:29:30;;;;;;;19.10;5.35;;;32.00;49.20;;;;;;5091655;28;20046;-72
2022/07/19 06:32:34;;;;;;;27.67;6.45;;;32.00;48.90;;;;;;5091503;28;20035;-71
2022/07/19 06:35:40;;;;;;;16.85;5.38;;;32.30;49.30;;;;;;5091805;28;20102;-70
2022/07/19 06:38:44;;;;;;;25.83;5.50;;;32.50;49.60;;;;;;5091667;28;20039;-71
2022/07/19 06:41:48;;;;;;;37.22;7.13;;;32.80;49.10;;;;;;5091730;28;20059;-71
2022/07/19 06:44:56;;;;;;;21.02;6.03;;;32.60;48.30;;;;;;5090395;28;20075;-70
2022/07/19 06:48:00;;;;;;;24.15;6.32;;;32.70;47.80;;;;;;5091425;28;20502;-69
2022/07/19 06:51:06;;;;;;;20.45;5.85;;;32.50;47.30;;;;;;5091066;28;20388;-68
2022/07/19 06:54:10;;;;;;;16.20;5.35;;;32.50;45.50;;;;;;5091314;28;20058;-70
2022/07/19 06:57:14;;;;;;;25.10;5.85;;;32.60;46.50;;;;;;5091094;28;20058;-70
2022/07/19 07:00:18;;;;;;;21.67;6.43;;;33.00;46.30;;;;;;5091479;28;20043;-70
2022/07/19 07:03:22;;;;;;;24.27;6.90;;;33.10;46.70;;;;;;5091158;28;20055;-70
2022/07/19 07:06:26;;;;;;;29.00;7.05;;;33.40;45.60;;;;;;5091496;28;20040;-70
2022/07/19 07:09:30;;;;;;;29.60;7.50;;;33.40;45.40;;;;;;5091249;28;20062;-69
2022/07/19 07:12:34;;;;;;;18.67;7.97;;;33.60;46.20;;;;;;5091196;28;20047;-70
2022/07/19 07:15:39;;;;;;;28.25;7.70;;;34.00;46.20;;;;;;5078611;28;20495;-70
2022/07/19 07:18:43;;;;;;;30.17;8.13;;;34.20;46.00;;;;;;5090206;28;20055;-70
2022/07/19 07:21:48;;;;;;;21.98;7.28;;;34.40;45.80;;;;;;5091042;28;20123;-70
2022/07/19 07:24:52;;;;;;;42.42;10.73;;;34.80;44.50;;;;;;5090939;28;20055;-70
2022/07/19 07:27:57;;;;;;;22.15;7.22;;;34.80;44.70;;;;;;5089648;28;20043;-70
2022/07/19 07:31:01;;;;;;;19.33;6.38;;;34.80;43.10;;;;;;5090582;28;20407;-69
2022/07/19 07:34:05;;;;;;;17.17;6.32;;;34.70;42.80;;;;;;5090652;28;20040;-69
2022/07/19 07:37:09;;;;;;;15.55;6.10;;;35.10;42.40;;;;;;5090777;28;20498;-68
2022/07/19 07:40:13;;;;;;;16.50;6.55;;;36.30;41.10;;;;;;5091116;28;20044;-68
2022/07/19 07:43:17;;;;;;;16.40;4.88;;;37.00;39.70;;;;;;5090726;28;20039;-68
2022/07/19 07:46:21;;;;;;;15.88;4.55;;;37.10;37.30;;;;;;5090906;28;20055;-68
2022/07/19 07:49:26;;;;;;;14.45;5.22;;;37.60;37.00;;;;;;5077992;28;20059;-67
2022/07/19 07:52:30;;;;;;;10.27;4.50;;;37.60;36.90;;;;;;5090725;28;20047;-68
2022/07/19 07:55:38;;;;;;;19.65;5.85;;;38.20;36.60;;;;;;5090204;28;20101;-68
2022/07/19 07:58:42;;;;;;;22.48;6.25;;;38.40;37.10;;;;;;5090539;28;20511;-65
2022/07/19 08:01:46;;;;;;;17.45;5.32;;;38.70;37.10;;;;;;5089355;28;20198;-67
2022/07/19 08:04:50;;;;;;;23.58;6.22;;;38.60;36.30;;;;;;5090364;28;20523;-67
2022/07/19 08:07:54;;;;;;;25.13;6.63;;;38.70;36.70;;;;;;5090275;28;20063;-70
2022/07/19 08:10:57;;;;;;;13.25;6.28;;;38.90;36.60;;;;;;5090603;28;20182;-69
2022/07/19 08:14:01;;;;;;;11.40;4.88;;;38.30;35.70;;;;;;5089746;28;20055;-70
2022/07/19 08:17:05;;;;;;;14.52;5.97;;;37.90;34.90;;;;;;5090197;28;20043;-67
2022/07/19 08:20:10;;;;;;;20.88;6.75;;;37.40;36.10;;;;;;5090075;28;20055;-67
2022/07/19 08:23:14;;;;;;;13.20;6.93;;;37.30;36.80;;;;;;5089045;28;20047;-67
2022/07/19 08:26:18;;;;;;;19.33;7.32;;;36.90;36.60;;;;;;5090136;28;20533;-67
2022/07/19 08:29:22;;;;;;;26.08;8.95;;;36.80;37.40;;;;;;5090221;28;20502;-67
2022/07/19 08:32:25;;;;;;;14.20;7.53;;;36.90;37.20;;;;;;5090890;28;20051;-70
2022/07/19 08:35:30;;;;;;;18.77;7.07;;;36.70;36.70;;;;;;5090418;28;20055;-70
2022/07/19 08:38:33;;;;;;;21.42;7.20;;;36.80;36.60;;;;;;5090497;28;20051;-70
2022/07/19 08:41:37;;;;;;;9.35;5.50;;;36.40;36.60;;;;;;5093914;28;20039;-69
2022/07/19 08:44:42;;;;;;;14.98;7.45;;;36.30;36.70;;;;;;5093735;28;20315;-69
2022/07/19 08:47:46;;;;;;;22.52;6.82;;;36.20;37.80;;;;;;5093793;28;20047;-69
2022/07/19 08:50:52;;;;;;;23.27;7.32;;;36.40;38.00;;;;;;5093606;28;20063;-69
2022/07/19 08:53:56;;;;;;;22.30;7.45;;;36.70;38.10;;;;;;5093579;28;20051;-69
2022/07/19 09:00:33;;;;;;;18.38;7.22;;;36.70;36.70;;;;;;5093899;28;20510;-69
2022/07/19 09:03:37;;;;;;;13.15;6.38;;;36.60;36.90;;;;;;5093193;28;20047;-69
2022/07/19 09:06:44;;;;;;;18.90;6.40;;;36.70;36.80;;;;;;5093612;28;20047;-69
2022/07/19 09:09:48;;;;;;;17.17;7.70;;;36.80;37.00;;;;;;5092889;28;20035;-69
2022/07/19 09:12:59;;;;;;;18.80;6.30;;;37.00;37.20;;;;;;5092997;28;20051;-69
2022/07/19 09:16:04;;;;;;;8.93;5.60;;;36.90;36.30;;;;;;5093614;28;20067;-69
2022/07/19 09:19:08;;;;;;;16.67;7.40;;;36.80;36.30;;;;;;5093126;28;20047;-69
2022/07/19 09:22:18;;;;;;;18.85;6.95;;;36.80;36.80;;;;;;5093100;28;20043;-69
2022/07/19 09:25:34;;;;;;;19.45;6.82;;;36.80;37.40;;;;;;5093065;28;20059;-69
2022/07/19 09:28:38;;;;;;;18.52;6.82;;;36.90;37.20;;;;;;5093066;28;20043;-69
2022/07/19 09:32:06;;;;;;;12.70;4.88;;;36.90;37.20;;;;;;5093238;28;20047;-69
2022/07/19 09:35:11;;;;;;;12.15;5.38;;;37.00;36.30;;;;;;5092580;28;20038;-69
2022/07/19 09:38:16;;;;;;;15.60;5.72;;;37.10;36.50;;;;;;5092783;28;20039;-69
2022/07/19 09:41:20;;;;;;;16.40;5.53;;;37.10;36.70;;;;;;5092648;28;20055;-69
2022/07/19 09:44:24;;;;;;;20.27;6.25;;;37.20;36.70;;;;;;5092562;28;20125;-69
2022/07/19 09:47:36;;;;;;;9.77;4.97;;;37.10;37.40;;;;;;5092642;28;20510;-68
2022/07/19 09:50:41;;;;;;;11.02;5.75;;;37.20;36.90;;;;;;5091547;28;20047;-68
2022/07/19 09:53:46;;;;;;;21.40;6.72;;;37.30;37.20;;;;;;5092643;28;20519;-68
2022/07/19 09:56:52;;;;;;;20.92;7.13;;;37.50;36.40;;;;;;5092365;28;20035;-68
2022/07/19 09:59:58;;;;;;;14.10;5.28;;;37.50;37.70;;;;;;5092475;28;20529;-67
2022/07/19 10:03:04;;;;;;;12.75;5.55;;;37.40;36.40;;;;;;5092562;28;20051;-68
2022/07/19 10:06:09;;;;;;;19.45;5.57;;;37.20;37.00;;;;;;5092106;28;20055;-66
2022/07/19 10:09:15;;;;;;;11.55;5.55;;;37.70;36.20;;;;;;5091939;28;20051;-66
2022/07/19 10:12:21;;;;;;;18.05;5.85;;;39.00;35.90;;;;;;5092079;28;20039;-66
2022/07/19 10:15:26;;;;;;;18.55;5.95;;;40.00;35.60;;;;;;5092195;28;20043;-67
2022/07/19 10:18:37;;;;;;;16.10;5.75;;;40.20;34.90;;;;;;5092369;28;20043;-66
2022/07/19 10:21:41;;;;;;;15.60;5.80;;;40.30;34.90;;;;;;5091929;28;20043;-67
2022/07/19 10:24:45;;;;;;;19.52;5.97;;;40.70;35.00;;;;;;5091173;28;20059;-67
2022/07/19 10:27:54;;;;;;;13.65;5.68;;;40.80;34.70;;;;;;5091838;28;20146;-67
2022/07/19 10:30:58;;;;;;;15.82;6.00;;;40.80;35.10;;;;;;5091897;28;20047;-67
2022/07/19 10:34:06;;;;;;;17.88;5.72;;;40.60;34.90;;;;;;5091926;28;20066;-67
2022/07/19 10:37:09;;;;;;;22.00;5.85;;;40.30;34.80;;;;;;5091609;28;20209;-67
2022/07/19 10:40:33;;;;;;;18.10;4.88;;;40.40;35.50;;;;;;5091619;28;20130;-67
2022/07/19 10:44:07;;;;;;;15.63;5.10;;;40.50;35.00;;;;;;5091691;28;20382;-66
2022/07/19 10:47:12;;;;;;;18.65;5.13;;;40.20;35.30;;;;;;5091449;28;20055;-69
2022/07/19 10:50:21;;;;;;;13.30;5.20;;;39.80;34.90;;;;;;5091391;28;20396;-69
2022/07/19 10:53:40;;;;;;;20.58;5.90;;;39.90;35.60;;;;;;5091471;28;20063;-67
2022/07/19 10:57:02;;;;;;;19.38;6.03;;;40.30;35.10;;;;;;5091454;28;20046;-66
2022/07/19 11:00:17;;;;;;;18.45;5.18;;;40.60;35.30;;;;;;5091930;28;20059;-69
2022/07/19 11:03:21;;;;;;;10.70;4.32;;;41.00;35.00;;;;;;5090996;28;20039;-69
2022/07/19 11:06:27;;;;;;;17.23;4.25;;;41.10;34.20;;;;;;5091285;28;20059;-70
2022/07/19 11:09:54;;;;;;;17.88;5.00;;;40.40;35.00;;;;;;5091245;28;20059;-69
2022/07/19 11:12:59;;;;;;;10.90;4.40;;;40.00;34.90;;;;;;5090985;28;20054;-69
2022/07/19 11:16:03;;;;;;;7.50;4.47;;;39.70;34.90;;;;;;5091387;28;20047;-69
2022/07/19 11:19:09;;;;;;;11.57;3.80;;;39.20;35.60;;;;;;5090894;28;20039;-68
2022/07/19 11:22:13;;;;;;;14.90;4.10;;;39.00;35.70;;;;;;5091253;28;20043;-69
2022/07/19 11:25:30;;;;;;;10.00;3.47;;;38.70;35.80;;;;;;5090095;28;20063;-68
2022/07/19 11:28:36;;;;;;;7.43;3.22;;;38.40;36.50;;;;;;5090958;28;20059;-69
2022/07/19 11:31:47;;;;;;;14.35;3.88;;;38.00;35.40;;;;;;5090410;28;20071;-69
2022/07/19 11:34:57;;;;;;;8.75;3.85;;;37.60;35.70;;;;;;5090983;28;20039;-69
2022/07/19 11:38:01;;;;;;;13.17;3.47;;;37.30;36.00;;;;;;5090671;28;20046;-68
2022/07/19 11:41:30;;;;;;;6.50;3.28;;;37.10;36.70;;;;;;5090877;28;20490;-69
2022/07/19 11:44:37;;;;;;;8.18;3.20;;;37.00;37.00;;;;;;5090567;28;20055;-69
2022/07/19 11:47:55;;;;;;;7.82;3.28;;;36.90;36.80;;;;;;5090710;28;20388;-69
2022/07/19 11:51:08;;;;;;;5.20;3.25;;;37.00;36.90;;;;;;5090713;28;20071;-68
2022/07/19 11:54:12;;;;;;;8.02;3.10;;;37.10;37.30;;;;;;5090133;28;20068;-69
2022/07/19 11:57:26;;;;;;;9.45;3.38;;;37.20;37.30;;;;;;5090809;28;20043;-69
2022/07/19 12:00:32;;;;;;;10.02;3.15;;;37.20;37.00;;;;;;5090893;28;20066;-69
2022/07/19 12:03:37;;;;;;;5.93;3.00;;;37.10;36.70;;;;;;5090592;28;20426;-69
2022/07/19 12:06:50;;;;;;;9.05;2.65;;;37.10;37.00;;;;;;5090634;28;20051;-69
2022/07/19 12:09:53;;;;;;;8.10;2.67;;;37.10;37.50;;;;;;5090700;28;20395;-68
2022/07/19 12:12:58;;;;;;;4.80;2.65;;;37.10;37.80;;;;;;5090709;28;20048;-69
2022/07/19 12:16:10;;;;;;;5.22;2.78;;;37.20;38.10;;;;;;5093580;28;20499;-70
2022/07/19 12:19:17;;;;;;;5.47;3.17;;;37.20;37.50;;;;;;5094386;28;20043;-70
2022/07/19 12:22:35;;;;;;;7.70;2.85;;;37.20;37.40;;;;;;5094654;28;20047;-70
2022/07/19 12:25:39;;;;;;;11.27;3.03;;;37.10;37.90;;;;;;5094347;28;20051;-70
2022/07/19 12:28:43;;;;;;;12.27;3.22;;;37.30;37.40;;;;;;5094493;28;20518;-68
2022/07/19 12:31:48;;;;;;;8.18;3.05;;;38.80;36.80;;;;;;5094501;28;20055;-66
2022/07/19 12:34:57;;;;;;;9.30;3.58;;;40.20;35.70;;;;;;5094466;28;20356;-68
2022/07/19 12:38:04;;;;;;;6.38;2.97;;;41.00;35.00;;;;;;5094125;28;20047;-69
2022/07/19 12:41:09;;;;;;;8.95;3.67;;;41.30;34.90;;;;;;5093970;28;20503;-67
2022/07/19 12:44:13;;;;;;;12.00;3.50;;;41.60;35.00;;;;;;5094053;28;20047;-68
2022/07/19 12:47:17;;;;;;;7.05;3.10;;;41.60;34.60;;;;;;5093931;28;20039;-67
2022/07/19 12:50:21;;;;;;;4.43;2.80;;;41.30;34.50;;;;;;5093810;28;20063;-67
2022/07/19 12:53:25;;;;;;;3.60;2.80;;;40.90;35.30;;;;;;5093893;28;20039;-67
2022/07/19 12:56:29;;;;;;;8.90;2.88;;;40.70;35.70;;;;;;5093778;28;20035;-68
2022/07/19 12:59:38;;;;;;;10.23;3.00;;;40.70;35.40;;;;;;5092894;28;20047;-68
2022/07/19 13:02:45;;;;;;;12.55;4.07;;;40.80;34.90;;;;;;5093559;28;20494;-68
2022/07/19 13:05:49;;;;;;;12.30;3.08;;;40.50;36.90;;;;;;5093439;28;20504;-69
2022/07/19 13:08:53;;;;;;;7.05;2.67;;;40.90;36.20;;;;;;5093499;28;20043;-67
2022/07/19 13:11:57;;;;;;;9.30;3.90;;;41.30;36.10;;;;;;5093577;28;20039;-68
2022/07/19 13:15:02;;;;;;;9.70;3.90;;;41.40;38.80;;;;;;5093441;28;20058;-68
2022/07/19 13:18:07;;;;;;;16.50;4.18;;;41.50;39.50;;;;;;5093565;28;20178;-69
2022/07/19 13:21:12;;;;;;;13.95;3.63;;;41.10;39.60;;;;;;5093340;28;20047;-69
2022/07/19 13:24:16;;;;;;;17.55;4.40;;;40.50;39.00;;;;;;5092938;28;20047;-69
2022/07/19 13:27:20;;;;;;;13.05;3.83;;;40.40;39.90;;;;;;5092954;28;20043;-68
2022/07/19 13:30:24;;;;;;;14.00;4.05;;;40.30;40.20;;;;;;5091694;28;20054;-68
2022/07/19 13:33:28;;;;;;;12.43;4.28;;;40.50;40.60;;;;;;5092709;28;20047;-67
2022/07/19 13:36:32;;;;;;;19.42;3.63;;;40.50;40.30;;;;;;5092418;28;20047;-69
2022/07/19 13:39:36;;;;;;;16.55;3.60;;;40.20;40.60;;;;;;5091293;28;20051;-67
2022/07/19 13:42:41;;;;;;;11.10;3.40;;;40.10;40.70;;;;;;5092817;28;20043;-67
2022/07/19 13:45:45;;;;;;;12.52;3.53;;;39.90;40.50;;;;;;5092531;28;20166;-69
2022/07/19 13:48:49;;;;;;;27.90;5.95;;;39.80;40.60;;;;;;5091405;28;20047;-67
2022/07/19 13:51:53;;;;;;;8.43;3.67;;;39.70;41.00;;;;;;5092660;28;20126;-67
2022/07/19 13:54:56;;;;;;;8.75;3.38;;;39.80;41.30;;;;;;5092583;28;20395;-68
2022/07/19 13:58:02;;;;;;;7.45;3.53;;;39.50;40.20;;;;;;5090949;28;20043;-68
2022/07/19 14:01:06;;;;;;;5.50;3.40;;;39.00;40.40;;;;;;5092406;28;20388;-68
2022/07/19 14:04:10;;;;;;;10.05;3.72;;;38.60;41.70;;;;;;5092315;28;20032;-67
2022/07/19 14:07:14;;;;;;;8.77;3.38;;;38.20;41.30;;;;;;5091889;28;20071;-68
2022/07/19 14:10:18;;;;;;;10.50;3.90;;;37.90;41.70;;;;;;5092245;28;20041;-68
2022/07/19 14:13:22;;;;;;;11.98;4.00;;;37.70;41.50;;;;;;5091968;28;20043;-68
2022/07/19 14:16:26;;;;;;;13.13;3.85;;;37.60;42.20;;;;;;5092201;28;20530;-68
2022/07/19 14:19:31;;;;;;;6.32;3.17;;;37.50;41.90;;;;;;5091948;28;20048;-68
2022/07/19 14:22:35;;;;;;;6.00;3.40;;;37.40;42.60;;;;;;5092021;28;20051;-68
2022/07/19 14:25:40;;;;;;;10.02;3.60;;;37.30;41.90;;;;;;5091612;28;20059;-68
2022/07/19 14:28:44;;;;;;;11.57;3.70;;;37.20;42.20;;;;;;5091588;28;20400;-67
2022/07/19 14:31:48;;;;;;;11.32;3.70;;;37.20;41.90;;;;;;5091496;28;20046;-67
2022/07/19 14:34:52;;;;;;;28.77;4.85;;;37.50;40.70;;;;;;5091693;28;20486;-66
2022/07/19 14:37:56;;;;;;;7.97;3.42;;;38.20;41.10;;;;;;5090802;28;20055;-67
2022/07/19 14:41:00;;;;;;;11.00;4.15;;;38.80;40.70;;;;;;5091563;28;20039;-67
2022/07/19 14:44:04;;;;;;;11.65;3.72;;;39.20;40.20;;;;;;5091475;28;20396;-68
2022/07/19 14:47:08;;;;;;;13.52;3.33;;;39.20;39.80;;;;;;5091386;28;20054;-69
2022/07/19 14:50:13;;;;;;;13.27;3.97;;;39.20;39.60;;;;;;5090992;28;20051;-68
2022/07/19 14:53:17;;;;;;;17.50;6.72;;;39.20;39.60;;;;;;5090865;28;20055;-67
2022/07/19 14:56:21;;;;;;;6.75;3.72;;;39.40;39.70;;;;;;5090798;28;20035;-67
2022/07/19 14:59:25;;;;;;;11.40;3.78;;;39.20;39.40;;;;;;5091185;28;20043;-68
2022/07/19 15:02:30;;;;;;;7.22;3.63;;;39.20;39.60;;;;;;5090817;28;20043;-67
2022/07/19 15:05:34;;;;;;;9.93;3.92;;;39.00;39.00;;;;;;5090551;28;20407;-69
2022/07/19 15:08:42;;;;;;;10.98;3.78;;;39.00;38.90;;;;;;5091087;28;20384;-73
2022/07/19 15:11:46;;;;;;;17.42;4.90;;;38.90;39.20;;;;;;5091368;28;20042;-73
2022/07/19 15:14:50;;;;;;;11.38;4.30;;;38.90;39.80;;;;;;5091259;28;20058;-73
2022/07/19 15:17:54;;;;;;;16.38;4.25;;;39.10;40.30;;;;;;5090577;28;20498;-69
2022/07/19 15:21:26;;;;;;;13.30;3.90;;;38.80;39.20;;;;;;5090053;28;20074;-73
2022/07/19 15:24:31;;;;;;;12.40;3.90;;;38.60;39.10;;;;;;5090231;28;20392;-75
2022/07/19 15:27:36;;;;;;;9.30;3.63;;;38.70;38.30;;;;;;5090791;28;20051;-72
2022/07/19 15:31:10;;;;;;;15.70;4.63;;;38.50;38.90;;;;;;5091048;28;20039;-72
2022/07/19 15:34:15;;;;;;;8.48;3.58;;;38.70;38.90;;;;;;5091078;28;20047;-74
2022/07/19 15:37:21;;;;;;;8.45;3.38;;;38.50;39.00;;;;;;5091150;28;20043;-73
2022/07/19 15:40:26;;;;;;;6.10;3.15;;;38.30;39.00;;;;;;5091068;28;20047;-72
2022/07/19 15:43:35;;;;;;;13.52;4.05;;;38.10;39.50;;;;;;5090714;28;20403;-68
2022/07/19 15:46:39;;;;;;;11.93;3.72;;;38.70;39.20;;;;;;5089883;28;20491;-68
2022/07/19 15:49:43;;;;;;;7.72;4.03;;;38.70;37.70;;;;;;5091175;28;20043;-66
2022/07/19 15:52:47;;;;;;;11.63;3.67;;;39.00;38.20;;;;;;5094371;28;20042;-66
2022/07/19 15:55:51;;;;;;;10.15;3.95;;;39.00;38.20;;;;;;5094052;28;20043;-67
2022/07/19 15:58:55;;;;;;;8.75;3.88;;;38.80;39.10;;;;;;5094029;28;20051;-67